createdAt,value
2023-01-31T00:01:29.978Z,37.8
2023-01-31T00:06:37.327Z,37.8
2023-01-31T00:12:00.393Z,37.8
2023-01-31T00:17:23.216Z,37.6
2023-01-31T00:22:47.300Z,37.6
2023-01-31T00:28:11.209Z,37.6
2023-01-31T00:33:35.137Z,37.5
2023-01-31T00:38:41.858Z,37.4
2023-01-31T00:43:48.800Z,37.4
2023-01-31T00:49:11.711Z,37.3
2023-01-31T00:54:34.959Z,37.3
2023-01-31T00:59:59.315Z,37.2
2023-01-31T01:05:22.767Z,37.1
2023-01-31T01:10:45.692Z,37.1
2023-01-31T01:16:09.403Z,37.1
2023-01-31T01:21:33.330Z,37
2023-01-31T01:26:57.816Z,36.9
2023-01-31T01:32:20.584Z,36.9
2023-01-31T01:37:29.048Z,36.8
2023-01-31T01:42:36.872Z,36.8
2023-01-31T01:47:45.581Z,36.7
2023-01-31T01:52:53.663Z,36.7
2023-01-31T01:58:16.229Z,36.6
2023-01-31T02:03:38.686Z,37.1
2023-01-31T02:09:01.646Z,38.3
2023-01-31T02:14:25.870Z,38.9
2023-01-31T02:19:32.891Z,39.6
2023-01-31T02:24:40.233Z,40.2
2023-01-31T02:30:02.810Z,40.2
2023-01-31T02:35:25.544Z,41.4
2023-01-31T02:40:32.843Z,42.1
2023-01-31T02:45:55.705Z,42.8
2023-01-31T02:51:17.833Z,43.4
2023-01-31T02:56:41.200Z,44.2
2023-01-31T03:02:05.191Z,44.8
2023-01-31T03:07:27.877Z,44.9
2023-01-31T03:12:51.364Z,44.9
2023-01-31T03:18:14.196Z,45.1
2023-01-31T03:23:05.728Z,45.3
2023-01-31T03:28:29.970Z,45.4
2023-01-31T03:33:53.303Z,45.6
2023-01-31T03:39:15.492Z,45.6
2023-01-31T03:44:39.019Z,45.6
2023-01-31T03:50:03.370Z,45.6
2023-01-31T03:55:25.498Z,45.6
2023-01-31T04:00:48.834Z,45.5
2023-01-31T04:05:56.651Z,45.4
2023-01-31T04:11:04.600Z,45.4
2023-01-31T04:16:28.988Z,45.3
2023-01-31T04:21:50.770Z,45.3
2023-01-31T04:27:14.989Z,45.2
2023-01-31T04:32:38.737Z,45.1
2023-01-31T04:38:01.770Z,45.1
2023-01-31T04:43:24.760Z,44.9
2023-01-31T04:48:48.374Z,44.9
2023-01-31T04:54:11.297Z,44.8
2023-01-31T04:59:33.884Z,44.7
2023-01-31T05:04:57.570Z,44.6
2023-01-31T05:10:07.773Z,44.6
2023-01-31T05:15:30.506Z,44.4
2023-01-31T05:20:54.069Z,44.4
2023-01-31T05:26:19.983Z,44.3
2023-01-31T05:31:46.577Z,44.2
2023-01-31T05:37:12.145Z,44
2023-01-31T05:42:35.094Z,43.9
2023-01-31T05:47:57.125Z,43.8
2023-01-31T05:53:05.531Z,43.8
2023-01-31T05:58:13.319Z,43.6
2023-01-31T06:03:37.125Z,43.6
2023-01-31T06:08:45.330Z,43.3
2023-01-31T06:14:07.811Z,43.1
2023-01-31T06:19:16.723Z,42.9
2023-01-31T06:24:39.687Z,42.7
2023-01-31T06:30:02.902Z,42.5
2023-01-31T06:35:39.364Z,42.4
2023-01-31T06:40:48.236Z,42.2
2023-01-31T06:45:56.673Z,42.1
2023-01-31T06:51:19.935Z,41.9
2023-01-31T06:56:44.020Z,41.8
2023-01-31T07:02:06.975Z,41.7
2023-01-31T07:07:29.476Z,41.6
2023-01-31T07:12:53.314Z,41.4
2023-01-31T07:18:16.484Z,41.3
2023-01-31T07:23:38.907Z,41.2
2023-01-31T07:28:48.908Z,41.1
2023-01-31T07:35:24.523Z,40.9
2023-01-31T07:40:47.336Z,40.9
2023-01-31T07:46:40.013Z,40.8
2023-01-31T07:52:04.670Z,40.6
2023-01-31T07:57:26.892Z,40.5
2023-01-31T08:02:50.453Z,40.4
2023-01-31T08:08:21.380Z,40.3
2023-01-31T08:13:43.736Z,40.3
2023-01-31T08:19:06.844Z,40.1
2023-01-31T08:24:30.451Z,40.1
2023-01-31T08:29:54.497Z,39.9
2023-01-31T08:35:33.121Z,39.8
2023-01-31T08:41:08.858Z,39.8
2023-01-31T08:46:46.081Z,39.6
2023-01-31T08:52:06.846Z,39.6
2023-01-31T08:57:30.592Z,39.4
2023-01-31T09:03:05.802Z,39.4
2023-01-31T09:08:30.160Z,39.3
2023-01-31T09:13:53.049Z,49.4
2023-01-31T09:24:24.014Z,48.9
2023-01-31T09:30:02.887Z,46.9
2023-01-31T09:35:26.624Z,55.1
2023-01-31T09:40:49.778Z,54.8
2023-01-31T09:46:12.473Z,56.1
2023-01-31T09:51:36.812Z,57
2023-01-31T09:57:01.489Z,57.8
2023-01-31T10:02:24.949Z,58.1
2023-01-31T10:07:48.348Z,58.2
2023-01-31T10:12:42.109Z,58.9
2023-01-31T10:17:49.921Z,59.6
2023-01-31T10:22:59.551Z,59.7
2023-01-31T10:28:09.737Z,59.6
2023-01-31T10:33:16.935Z,58.7
2023-01-31T10:38:39.837Z,57.7
2023-01-31T10:44:04.014Z,55.1
2023-01-31T10:49:27.756Z,51.4
2023-01-31T10:54:52.492Z,54.9
2023-01-31T11:00:14.517Z,57.6
2023-01-31T11:05:37.734Z,53.2
2023-01-31T11:10:45.582Z,50.3
2023-01-31T11:16:07.940Z,48.4
2023-01-31T11:21:30.996Z,47.2
2023-01-31T11:26:53.613Z,46.4
2023-01-31T11:32:16.639Z,45.8
2023-01-31T11:37:39.170Z,45.3
2023-01-31T11:42:46.474Z,44.4
2023-01-31T11:48:09.139Z,43.8
2023-01-31T11:53:35.419Z,43.3
2023-01-31T11:58:58.110Z,42.9
2023-01-31T12:04:35.647Z,42.6
2023-01-31T12:09:58.631Z,42.3
2023-01-31T12:15:31.139Z,42
2023-01-31T12:20:59.307Z,41.7
2023-01-31T12:26:21.774Z,41.4
2023-01-31T12:31:45.130Z,41.1
2023-01-31T12:37:23.148Z,40.8
2023-01-31T12:42:54.556Z,40.6
2023-01-31T12:48:32.754Z,40.3
2023-01-31T12:53:55.897Z,40.1
2023-01-31T12:59:32.373Z,39.8
2023-01-31T13:04:55.580Z,39.6
2023-01-31T13:10:31.647Z,39.4
2023-01-31T13:15:55.291Z,39.2
2023-01-31T13:21:02.071Z,39.1
2023-01-31T13:26:25.699Z,38.9
2023-01-31T13:31:48.835Z,38.8
2023-01-31T13:37:11.655Z,38.6
2023-01-31T13:42:18.950Z,38.5
2023-01-31T13:47:42.537Z,38.4
2023-01-31T13:53:08.912Z,38.2
2023-01-31T13:58:16.361Z,38.1
2023-01-31T14:03:41.897Z,38
2023-01-31T14:09:04.349Z,37.9
2023-01-31T14:14:28.383Z,37.8
2023-01-31T14:19:52.250Z,37.7
2023-01-31T14:25:14.886Z,37.6
2023-01-31T14:30:40.196Z,37.5
2023-01-31T14:36:03.056Z,37.4
2023-01-31T14:41:25.848Z,37.3
2023-01-31T14:46:48.849Z,37.2
2023-01-31T14:52:16.087Z,37.1
2023-01-31T14:57:37.923Z,37.1
2023-01-31T15:03:00.793Z,32.3
2023-01-31T15:08:23.660Z,27
2023-01-31T15:13:54.899Z,23.8
2023-01-31T15:19:48.008Z,21.8
2023-01-31T15:25:10.609Z,20.3
2023-01-31T15:30:33.701Z,19.3
2023-01-31T15:41:04.297Z,18.3
2023-01-31T15:46:27.420Z,17.9
2023-01-31T15:52:07.360Z,17.6
2023-01-31T15:57:33.076Z,17.4
2023-01-31T16:02:56.740Z,17.2
2023-01-31T16:13:16.726Z,16.9
2023-01-31T16:18:39.602Z,16.8
2023-01-31T16:24:02.825Z,16.7
2023-01-31T16:29:25.812Z,16.6
2023-01-31T16:34:50.161Z,16.5
2023-01-31T16:40:11.757Z,16.4
2023-01-31T16:45:34.174Z,16.3
2023-01-31T16:51:13.578Z,16.3
2023-01-31T16:56:36.189Z,16.3
2023-01-31T17:01:59.863Z,16.2
2023-01-31T17:07:10.768Z,16.1
2023-01-31T17:12:48.554Z,16.1
2023-01-31T17:18:01.998Z,16.1
2023-01-31T17:23:36.584Z,16
2023-01-31T17:29:03.390Z,15.9
2023-01-31T17:34:28.670Z,15.9
2023-01-31T17:40:03.489Z,15.9
2023-01-31T17:45:39.304Z,15.9
2023-01-31T17:51:01.809Z,15.8
2023-01-31T17:56:24.445Z,15.8
2023-01-31T18:02:03.785Z,15.8
2023-01-31T18:07:40.585Z,15.8
2023-01-31T18:13:16.227Z,15.8
2023-01-31T18:18:52.339Z,15.8
2023-01-31T18:24:13.326Z,15.8
2023-01-31T18:29:57.389Z,15.7
2023-01-31T18:41:29.488Z,15.7
2023-01-31T18:47:07.156Z,15.7
2023-01-31T18:52:40.866Z,15.7
2023-01-31T18:58:20.544Z,15.6
2023-01-31T19:03:55.300Z,15.6
2023-01-31T19:09:13.752Z,15.6
2023-01-31T19:14:22.463Z,15.6
2023-01-31T19:19:25.856Z,15.6
2023-01-31T19:24:47.219Z,15.6
2023-01-31T19:30:23.364Z,15.6
2023-01-31T19:36:03.050Z,15.6
2023-01-31T19:41:39.948Z,15.6
2023-01-31T19:47:21.269Z,15.6
2023-01-31T19:53:01.798Z,15.6
2023-01-31T19:57:59.026Z,15.6
2023-01-31T20:03:21.560Z,15.6
2023-01-31T20:08:29.457Z,15.6
2023-01-31T20:13:38.541Z,15.6
2023-01-31T20:18:45.803Z,15.8
2023-01-31T20:24:10.581Z,16.2
2023-01-31T20:29:33.665Z,16.6
2023-01-31T20:34:41.240Z,17.1
2023-01-31T20:39:48.432Z,17.7
2023-01-31T20:44:56.402Z,18.4
2023-01-31T20:50:05.446Z,19.1
2023-01-31T20:55:28.928Z,19.9
2023-01-31T21:00:36.297Z,20.7
2023-01-31T21:05:43.631Z,21.6
2023-01-31T21:10:51.212Z,22.3
2023-01-31T21:16:14.769Z,22.9
2023-01-31T21:21:47.521Z,23.3
2023-01-31T21:26:54.389Z,23.4
2023-01-31T21:32:19.197Z,23.6
2023-01-31T21:37:41.379Z,23.7
2023-01-31T21:43:04.416Z,23.8
2023-01-31T21:48:12.963Z,23.8
2023-01-31T21:53:22.043Z,23.9
2023-01-31T21:58:45.007Z,23.9
2023-01-31T22:04:08.456Z,23.9
2023-01-31T22:09:15.959Z,23.9
2023-01-31T22:14:26.146Z,23.9
2023-01-31T22:19:48.736Z,23.9
2023-01-31T22:25:12.079Z,23.9
2023-01-31T22:30:48.822Z,24
2023-01-31T22:36:12.492Z,24
2023-01-31T22:41:36.775Z,23.9
2023-01-31T22:46:59.970Z,23.9
2023-01-31T22:52:23.056Z,23.9
2023-01-31T22:57:45.698Z,23.9
2023-01-31T23:03:08.379Z,23.9
2023-01-31T23:08:15.708Z,23.9
2023-01-31T23:13:22.770Z,23.9
2023-01-31T23:18:45.161Z,23.9
2023-01-31T23:23:52.667Z,23.9
2023-01-31T23:29:15.841Z,23.9
2023-01-31T23:34:24.379Z,23.8
2023-01-31T23:39:31.530Z,23.8
2023-01-31T23:44:54.532Z,23.8
2023-01-31T23:50:16.911Z,23.8
2023-01-31T23:55:41.058Z,23.8
